Time;durP1;ratioP1;P1;durP2;ratioP2;P2;SDS_P1;SDS_P2;PMS_P1;PMS_P2;Temp;Humidity;BMP_temperature;BMP_pressure;BME280_temperature;BME280_humidity;BME280_pressure;Samples;Min_cycle;Max_cycle;Signal;HPM_P1;HPM_P2
2024/02/04 00:00:23;;;;;;;1.07;0.97;;;14.50;54.90;;;;;;5010289;28;22352;-60
2024/02/04 00:02:50;;;;;;;1.20;1.10;;;14.50;55.20;;;;;;5010451;28;20236;-58
2024/02/04 00:05:15;;;;;;;0.93;0.80;;;14.60;55.00;;;;;;5025748;28;20186;-61
2024/02/04 00:07:41;;;;;;;0.80;0.80;;;14.50;55.10;;;;;;5006779;28;20548;-61
2024/02/04 00:10:07;;;;;;;1.10;0.70;;;14.60;54.90;;;;;;5010888;28;20190;-61
2024/02/04 00:12:32;;;;;;;0.70;0.70;;;14.40;54.90;;;;;;5009873;28;20192;-57
2024/02/04 00:14:58;;;;;;;0.63;0.63;;;14.20;55.30;;;;;;5009448;28;20213;-60
2024/02/04 00:17:24;;;;;;;0.60;0.60;;;14.10;55.70;;;;;;5009115;28;20194;-61
2024/02/04 00:19:49;;;;;;;0.73;0.70;;;13.90;56.10;;;;;;5007232;28;20257;-61
2024/02/04 00:22:18;;;;;;;0.67;0.67;;;13.80;56.50;;;;;;5003663;28;20437;-60
2024/02/04 00:24:44;;;;;;;0.70;0.60;;;13.80;56.50;;;;;;5003605;28;20186;-60
2024/02/04 00:27:09;;;;;;;0.60;0.60;;;13.50;56.80;;;;;;5003523;28;20475;-59
2024/02/04 00:29:35;;;;;;;0.70;0.70;;;13.50;57.50;;;;;;5004122;28;20200;-60
2024/02/04 00:32:00;;;;;;;1.20;0.63;;;13.70;57.10;;;;;;5004127;28;20273;-60
2024/02/04 00:34:26;;;;;;;0.70;0.60;;;13.90;56.70;;;;;;5004318;28;20221;-61
2024/02/04 00:36:51;;;;;;;1.87;0.70;;;14.00;56.40;;;;;;5003317;28;20232;-60
2024/02/04 00:39:17;;;;;;;2.13;0.70;;;14.20;56.00;;;;;;5010086;28;20213;-59
2024/02/04 00:41:42;;;;;;;0.83;0.70;;;14.40;55.70;;;;;;5007294;28;20622;-55
2024/02/04 00:44:08;;;;;;;0.60;0.60;;;14.50;55.30;;;;;;5008873;28;20661;-60
2024/02/04 00:46:33;;;;;;;0.80;0.60;;;14.60;55.10;;;;;;5005461;28;20217;-59
2024/02/04 00:48:59;;;;;;;0.70;0.70;;;14.60;54.90;;;;;;5003482;28;20196;-61
2024/02/04 00:51:24;;;;;;;0.70;0.70;;;14.50;55.10;;;;;;5003686;28;20190;-58
2024/02/04 00:53:50;;;;;;;0.80;0.80;;;14.50;55.00;;;;;;5003966;28;20185;-61
2024/02/04 00:56:16;;;;;;;0.60;0.60;;;14.60;55.00;;;;;;5004869;28;20221;-59
2024/02/04 00:58:41;;;;;;;1.00;0.80;;;14.60;54.90;;;;;;5005476;28;20807;-60
2024/02/04 01:01:07;;;;;;;0.80;0.80;;;14.60;54.80;;;;;;5003942;28;20193;-59
2024/02/04 01:03:33;;;;;;;0.50;0.50;;;14.50;54.90;;;;;;5005871;28;20205;-61
2024/02/04 01:05:58;;;;;;;0.70;0.70;;;14.50;55.10;;;;;;5008687;28;20564;-61
2024/02/04 01:08:24;;;;;;;0.70;0.63;;;14.50;55.00;;;;;;5006483;28;20709;-58
2024/02/04 01:10:51;;;;;;;0.60;0.60;;;14.60;54.80;;;;;;5003067;28;20182;-58
2024/02/04 01:13:17;;;;;;;1.33;1.23;;;14.60;54.80;;;;;;5005740;28;20556;-60
2024/02/04 01:15:43;;;;;;;1.70;1.60;;;14.60;54.90;;;;;;5004715;28;20554;-60
2024/02/04 01:18:09;;;;;;;2.17;1.37;;;14.60;55.00;;;;;;5007769;28;20432;-59
2024/02/04 01:20:34;;;;;;;2.17;1.53;;;14.70;54.90;;;;;;5009203;28;20605;-59
2024/02/04 01:23:00;;;;;;;1.53;1.30;;;14.70;54.80;;;;;;5009012;28;20421;-56
2024/02/04 01:25:26;;;;;;;1.80;1.00;;;14.70;54.70;;;;;;5009091;28;20429;-60
2024/02/04 01:27:51;;;;;;;0.70;0.70;;;14.70;54.70;;;;;;5007859;28;20206;-58
2024/02/04 01:30:17;;;;;;;0.90;0.80;;;14.80;54.70;;;;;;5009444;28;20194;-56
2024/02/04 01:32:42;;;;;;;1.10;0.97;;;14.70;54.60;;;;;;5007646;28;20189;-59
2024/02/04 01:35:08;;;;;;;1.20;1.10;;;14.70;54.70;;;;;;5009018;28;20275;-58
2024/02/04 01:37:33;;;;;;;0.90;0.90;;;14.70;54.70;;;;;;5007434;28;20233;-60
2024/02/04 01:39:59;;;;;;;0.80;0.80;;;14.70;54.70;;;;;;5009046;28;20186;-59
2024/02/04 01:42:25;;;;;;;1.27;1.10;;;14.70;54.70;;;;;;5008336;28;20284;-61
2024/02/04 01:44:51;;;;;;;0.90;0.90;;;14.70;54.60;;;;;;5009281;28;20304;-61
2024/02/04 01:47:16;;;;;;;0.93;0.83;;;14.70;54.60;;;;;;5006001;28;20677;-60
2024/02/04 01:49:43;;;;;;;1.47;0.90;;;14.60;54.60;;;;;;5005600;28;20467;-61
2024/02/04 01:52:11;;;;;;;0.80;0.80;;;14.50;54.70;;;;;;5007362;28;20226;-60
2024/02/04 01:54:38;;;;;;;2.00;1.00;;;14.50;54.90;;;;;;5003763;28;20491;-60
2024/02/04 01:57:04;;;;;;;1.47;1.20;;;14.50;55.00;;;;;;5004650;28;20476;-60
2024/02/04 01:59:30;;;;;;;2.57;1.77;;;14.50;55.10;;;;;;5007501;28;20499;-60
2024/02/04 02:02:01;;;;;;;2.10;1.53;;;14.60;55.00;;;;;;5002848;28;20190;-60
2024/02/04 02:04:27;;;;;;;2.53;1.93;;;14.60;54.90;;;;;;5006630;28;20956;-60
2024/02/04 02:06:53;;;;;;;2.20;1.47;;;14.70;54.90;;;;;;5002095;28;20460;-59
2024/02/04 02:09:19;;;;;;;1.97;1.37;;;14.60;54.90;;;;;;5004533;28;20418;-58
2024/02/04 02:11:57;;;;;;;0.93;0.90;;;14.60;55.00;;;;;;5006179;28;20837;-60
2024/02/04 02:14:26;;;;;;;0.70;0.70;;;14.60;54.90;;;;;;5006439;28;20217;-60
2024/02/04 02:16:52;;;;;;;1.90;0.83;;;14.60;54.70;;;;;;5002298;28;20467;-58
2024/02/04 02:19:44;;;;;;;0.70;0.70;;;14.60;54.80;;;;;;5005527;28;20484;-60
2024/02/04 02:22:28;;;;;;;0.60;0.60;;;14.40;54.90;;;;;;5001096;28;20433;-59
2024/02/04 02:24:57;;;;;;;0.70;0.70;;;14.10;55.40;;;;;;5007201;28;20572;-61
2024/02/04 02:27:22;;;;;;;0.53;0.50;;;14.10;55.60;;;;;;5004071;28;20457;-60
2024/02/04 02:29:48;;;;;;;0.70;0.70;;;14.10;55.70;;;;;;5006179;28;20963;-60
2024/02/04 02:32:14;;;;;;;0.50;0.50;;;14.20;55.60;;;;;;5009928;28;20205;-61
2024/02/04 02:34:41;;;;;;;0.77;0.77;;;14.20;55.40;;;;;;5010589;28;20224;-60
2024/02/04 02:37:27;;;;;;;0.63;0.63;;;14.20;55.30;;;;;;5006761;28;20460;-59
2024/02/04 02:40:10;;;;;;;0.50;0.50;;;14.00;55.50;;;;;;5009886;28;20431;-59
2024/02/04 02:42:38;;;;;;;0.70;0.67;;;14.10;55.70;;;;;;5010677;28;20432;-57
2024/02/04 02:45:06;;;;;;;0.60;0.60;;;14.00;55.50;;;;;;5011119;28;20441;-58
2024/02/04 02:47:32;;;;;;;0.90;0.90;;;13.90;55.70;;;;;;5009036;28;20444;-57
2024/02/04 02:49:59;;;;;;;5.53;0.70;;;14.00;55.80;;;;;;5006187;28;20435;-59
2024/02/04 02:52:25;;;;;;;0.60;0.60;;;14.00;55.70;;;;;;5005380;28;20894;-58
2024/02/04 02:54:51;;;;;;;0.70;0.70;;;14.00;55.60;;;;;;5006375;28;20566;-59
2024/02/04 02:57:16;;;;;;;0.60;0.60;;;14.20;55.50;;;;;;5004976;28;20209;-59
2024/02/04 02:59:42;;;;;;;0.80;0.70;;;14.20;55.30;;;;;;5006185;28;20186;-57
2024/02/04 03:02:08;;;;;;;1.43;0.83;;;14.10;55.50;;;;;;5005586;28;20538;-59
2024/02/04 03:04:34;;;;;;;0.60;0.60;;;14.20;55.40;;;;;;5007983;28;20194;-59
2024/02/04 03:06:59;;;;;;;0.60;0.60;;;14.30;55.40;;;;;;5004915;28;20472;-59
2024/02/04 03:09:25;;;;;;;0.80;0.80;;;14.30;55.20;;;;;;5010770;28;20579;-61
2024/02/04 03:11:50;;;;;;;1.50;0.93;;;14.40;55.20;;;;;;5006122;28;20239;-59
2024/02/04 03:14:16;;;;;;;3.43;1.70;;;14.40;55.20;;;;;;5009962;28;20364;-60
2024/02/04 03:16:45;;;;;;;2.00;1.37;;;14.30;55.10;;;;;;5006899;28;20256;-59
2024/02/04 03:19:11;;;;;;;2.50;2.30;;;14.30;55.20;;;;;;5011103;28;20860;-58
2024/02/04 03:21:36;;;;;;;2.77;1.80;;;14.30;55.10;;;;;;5010944;28;20532;-58
2024/02/04 03:24:02;;;;;;;1.40;1.30;;;14.30;55.10;;;;;;5011983;28;20182;-59
2024/02/04 03:26:28;;;;;;;1.03;0.90;;;14.30;55.10;;;;;;5010405;28;20696;-61
2024/02/04 03:28:53;;;;;;;1.00;0.90;;;14.30;55.20;;;;;;5011138;28;20224;-59
2024/02/04 03:31:23;;;;;;;0.93;0.93;;;14.20;55.20;;;;;;5010505;28;20216;-60
2024/02/04 03:33:49;;;;;;;1.17;0.80;;;14.20;55.30;;;;;;5011672;28;20696;-59
2024/02/04 03:36:25;;;;;;;0.90;0.90;;;14.20;55.30;;;;;;5009899;28;20514;-60
2024/02/04 03:38:51;;;;;;;0.70;0.70;;;14.20;55.30;;;;;;5010125;28;20943;-58
2024/02/04 03:41:17;;;;;;;0.80;0.80;;;14.20;55.50;;;;;;5010189;28;20583;-57
2024/02/04 03:43:44;;;;;;;1.00;0.87;;;14.20;55.40;;;;;;5009155;28;20201;-58
2024/02/04 03:46:16;;;;;;;0.80;0.80;;;14.20;55.30;;;;;;5010574;28;20445;-59
2024/02/04 03:48:42;;;;;;;0.60;0.60;;;14.20;55.30;;;;;;5009537;28;20432;-60
2024/02/04 03:51:07;;;;;;;1.23;0.80;;;14.20;55.30;;;;;;5011300;28;20420;-60
2024/02/04 03:53:33;;;;;;;0.90;0.90;;;14.30;55.40;;;;;;5010537;28;20508;-59
2024/02/04 03:55:59;;;;;;;1.17;1.07;;;14.30;55.40;;;;;;5005558;28;20213;-60
2024/02/04 03:58:29;;;;;;;1.10;0.77;;;14.30;55.30;;;;;;5004782;28;20456;-58
2024/02/04 04:00:58;;;;;;;0.90;0.90;;;14.30;55.30;;;;;;5005065;28;20202;-61
2024/02/04 04:03:23;;;;;;;1.33;0.80;;;14.30;55.30;;;;;;5007193;28;20963;-60
2024/02/04 04:05:50;;;;;;;0.70;0.70;;;14.30;55.40;;;;;;5002500;28;20464;-59
2024/02/04 04:08:16;;;;;;;0.90;0.70;;;14.20;55.20;;;;;;5002892;28;20209;-60
2024/02/04 04:10:41;;;;;;;0.70;0.70;;;14.20;55.50;;;;;;5004766;28;20437;-60
2024/02/04 04:13:07;;;;;;;0.80;0.73;;;14.20;55.60;;;;;;5003091;28;20192;-58
2024/02/04 04:15:32;;;;;;;0.77;0.70;;;14.20;55.60;;;;;;5002773;28;20225;-58
2024/02/04 04:17:58;;;;;;;0.70;0.70;;;14.20;55.50;;;;;;5002835;28;20198;-58
2024/02/04 04:20:23;;;;;;;1.27;1.00;;;14.20;55.40;;;;;;5004640;28;20193;-59
2024/02/04 04:22:49;;;;;;;1.20;0.90;;;14.20;55.60;;;;;;5004260;28;20190;-56
2024/02/04 04:25:15;;;;;;;0.90;0.90;;;14.10;55.70;;;;;;5003782;28;20194;-58
2024/02/04 04:27:40;;;;;;;0.80;0.77;;;14.20;55.70;;;;;;5004266;28;20202;-59
2024/02/04 04:30:08;;;;;;;1.40;0.70;;;14.30;55.60;;;;;;5003895;28;20244;-59
2024/02/04 04:32:34;;;;;;;0.73;0.70;;;14.30;55.50;;;;;;5003289;28;20193;-58
2024/02/04 04:34:59;;;;;;;0.70;0.70;;;14.30;55.40;;;;;;5005334;28;20476;-58
2024/02/04 04:37:25;;;;;;;0.70;0.63;;;14.20;55.40;;;;;;5003268;28;20206;-59
2024/02/04 04:39:50;;;;;;;0.73;0.70;;;14.20;55.40;;;;;;5008551;28;20533;-58
2024/02/04 04:42:16;;;;;;;0.70;0.70;;;14.30;55.40;;;;;;5007053;28;20189;-56
2024/02/04 04:44:41;;;;;;;1.10;0.93;;;14.20;55.60;;;;;;5005729;28;20200;-59
2024/02/04 04:47:07;;;;;;;0.80;0.80;;;14.00;56.10;;;;;;5006703;28;20210;-58
2024/02/04 04:49:32;;;;;;;1.90;0.80;;;13.80;56.40;;;;;;5007020;28;20251;-58
2024/02/04 04:51:58;;;;;;;0.70;0.70;;;13.90;56.70;;;;;;5003585;28;20646;-59
2024/02/04 04:54:24;;;;;;;0.80;0.80;;;13.90;56.50;;;;;;5003397;28;20205;-58
2024/02/04 04:56:49;;;;;;;0.80;0.63;;;14.00;56.30;;;;;;5004174;28;20688;-58
2024/02/04 04:59:15;;;;;;;0.60;0.60;;;14.00;56.10;;;;;;5004288;28;20190;-58
2024/02/04 05:01:47;;;;;;;0.83;0.83;;;14.10;56.30;;;;;;5005466;28;20189;-56
2024/02/04 05:04:14;;;;;;;0.70;0.70;;;14.10;56.20;;;;;;5008671;28;20597;-60
2024/02/04 05:06:40;;;;;;;0.80;0.80;;;14.10;56.00;;;;;;5008237;28;20437;-58
2024/02/04 05:09:05;;;;;;;0.70;0.60;;;14.10;56.00;;;;;;5010060;28;20948;-60
2024/02/04 05:11:31;;;;;;;1.87;0.60;;;14.20;56.10;;;;;;5008845;28;20182;-58
2024/02/04 05:13:56;;;;;;;1.47;0.80;;;14.10;56.10;;;;;;5007522;28;20595;-59
2024/02/04 05:16:22;;;;;;;0.73;0.70;;;14.10;56.10;;;;;;5003492;28;20218;-59
2024/02/04 05:18:47;;;;;;;1.00;0.80;;;14.10;56.10;;;;;;5009303;28;20213;-58
2024/02/04 05:21:13;;;;;;;0.93;0.90;;;14.10;56.30;;;;;;5009201;28;20193;-58
2024/02/04 05:23:38;;;;;;;1.07;0.90;;;14.00;56.20;;;;;;5008474;28;20216;-59
2024/02/04 05:26:05;;;;;;;0.80;0.80;;;14.00;56.50;;;;;;5009031;28;20693;-60
2024/02/04 05:28:31;;;;;;;0.93;0.87;;;14.00;56.30;;;;;;5008389;28;20186;-59
2024/02/04 05:30:57;;;;;;;0.80;0.80;;;14.10;56.40;;;;;;5009117;28;20417;-59
2024/02/04 05:33:22;;;;;;;0.80;0.80;;;14.00;56.20;;;;;;5008287;28;20440;-60
2024/02/04 05:35:48;;;;;;;1.67;0.70;;;13.90;56.40;;;;;;5008381;28;20241;-62
2024/02/04 05:38:14;;;;;;;0.97;0.77;;;13.90;56.60;;;;;;5008221;28;20182;-59
2024/02/04 05:40:39;;;;;;;1.20;1.10;;;13.90;57.20;;;;;;5009530;28;20293;-61
2024/02/04 05:43:07;;;;;;;1.30;1.20;;;14.00;56.70;;;;;;5008383;28;20198;-61
2024/02/04 05:45:33;;;;;;;1.00;0.90;;;14.00;57.00;;;;;;5009306;28;20193;-62
2024/02/04 05:47:59;;;;;;;1.47;1.00;;;14.00;56.30;;;;;;5007569;28;20496;-60
2024/02/04 05:50:24;;;;;;;0.77;0.77;;;14.00;56.20;;;;;;5009055;28;21165;-59
2024/02/04 05:52:50;;;;;;;0.80;0.80;;;14.00;56.20;;;;;;5005860;28;20190;-59
2024/02/04 05:55:15;;;;;;;0.80;0.80;;;14.00;56.20;;;;;;5002988;28;20245;-59
2024/02/04 05:57:41;;;;;;;1.10;0.70;;;14.00;56.30;;;;;;5002177;28;20320;-59
2024/02/04 06:00:10;;;;;;;0.80;0.70;;;14.00;56.30;;;;;;5003384;28;20269;-61
2024/02/04 06:02:36;;;;;;;0.80;0.80;;;14.00;56.30;;;;;;5002194;28;20193;-62
2024/02/04 06:05:02;;;;;;;1.80;0.70;;;14.00;56.10;;;;;;5005241;28;20449;-57
2024/02/04 06:07:28;;;;;;;0.80;0.80;;;14.10;56.10;;;;;;5004174;28;20465;-59
2024/02/04 06:09:56;;;;;;;0.60;0.60;;;14.00;56.20;;;;;;5007023;28;20445;-60
2024/02/04 06:12:21;;;;;;;0.80;0.80;;;13.90;56.30;;;;;;5005667;28;20182;-58
2024/02/04 06:14:47;;;;;;;1.03;0.60;;;13.90;56.40;;;;;;5006260;28;20479;-56
2024/02/04 06:17:13;;;;;;;0.97;0.87;;;13.80;56.50;;;;;;5005898;28;20719;-58
2024/02/04 06:19:38;;;;;;;1.23;0.80;;;13.80;56.70;;;;;;5007119;28;20190;-57
2024/02/04 06:22:04;;;;;;;0.80;0.80;;;13.80;56.90;;;;;;5006947;28;20266;-62
2024/02/04 06:24:29;;;;;;;0.80;0.80;;;13.80;56.80;;;;;;5008569;28;20185;-63
2024/02/04 06:26:55;;;;;;;2.40;0.90;;;13.80;56.80;;;;;;5009231;28;20705;-61
2024/02/04 06:29:21;;;;;;;1.00;0.60;;;13.80;56.90;;;;;;5009118;28;20205;-61
2024/02/04 06:31:47;;;;;;;1.47;1.10;;;13.90;56.90;;;;;;5011114;28;20182;-61
2024/02/04 06:34:12;;;;;;;0.70;0.70;;;13.90;56.70;;;;;;5009769;28;20186;-61
2024/02/04 06:36:42;;;;;;;1.23;0.80;;;13.90;56.60;;;;;;5009277;28;20477;-60
2024/02/04 06:39:08;;;;;;;0.70;0.70;;;13.90;56.60;;;;;;5006417;28;20285;-58
2024/02/04 06:41:34;;;;;;;0.80;0.73;;;13.80;56.60;;;;;;5006669;28;20448;-59
2024/02/04 06:44:00;;;;;;;0.80;0.80;;;13.70;56.60;;;;;;5003219;28;20472;-60
2024/02/04 06:46:27;;;;;;;0.70;0.70;;;13.60;56.70;;;;;;5003205;28;20484;-60
2024/02/04 06:48:53;;;;;;;0.60;0.60;;;13.40;57.00;;;;;;5005224;28;20236;-60
2024/02/04 06:51:18;;;;;;;0.80;0.80;;;13.30;57.40;;;;;;5005326;28;20445;-60
2024/02/04 06:53:44;;;;;;;0.73;0.73;;;13.30;57.60;;;;;;5006678;28;20695;-63
2024/02/04 06:56:09;;;;;;;1.00;0.93;;;13.20;57.60;;;;;;5005949;28;20843;-61
2024/02/04 06:58:38;;;;;;;0.70;0.70;;;13.10;57.90;;;;;;5005223;28;20190;-61
2024/02/04 07:01:04;;;;;;;1.00;0.90;;;12.80;58.30;;;;;;5024534;22;20173;-62
2024/02/04 07:03:30;;;;;;;1.33;1.00;;;12.70;58.90;;;;;;5044394;28;20478;-62
2024/02/04 07:05:55;;;;;;;1.07;1.03;;;12.60;59.00;;;;;;5044014;28;21185;-58
2024/02/04 07:08:21;;;;;;;0.70;0.70;;;12.70;59.00;;;;;;5039231;28;20282;-61
2024/02/04 07:10:47;;;;;;;1.10;1.00;;;12.50;59.20;;;;;;5036453;28;20199;-63
2024/02/04 07:13:12;;;;;;;1.50;1.10;;;12.50;59.20;;;;;;5044991;28;20247;-63
2024/02/04 07:15:38;;;;;;;1.23;1.13;;;12.50;59.40;;;;;;5045198;28;20216;-63
2024/02/04 07:18:04;;;;;;;1.03;0.93;;;12.50;59.40;;;;;;5039189;28;20189;-63
2024/02/04 07:20:30;;;;;;;1.10;1.00;;;12.80;59.30;;;;;;5042191;28;20546;-63
2024/02/04 07:22:56;;;;;;;0.80;0.80;;;12.90;58.80;;;;;;5036185;28;20188;-59
2024/02/04 07:25:22;;;;;;;1.00;0.90;;;12.90;58.70;;;;;;5041799;28;20196;-61
2024/02/04 07:27:48;;;;;;;1.20;0.90;;;12.90;58.70;;;;;;5039785;28;20238;-63
2024/02/04 07:30:14;;;;;;;1.10;1.00;;;12.90;58.70;;;;;;5043553;28;20443;-59
2024/02/04 07:32:39;;;;;;;0.90;0.90;;;12.80;58.90;;;;;;5046871;28;20962;-61
2024/02/04 07:35:05;;;;;;;0.80;0.80;;;12.90;58.70;;;;;;5045263;28;20223;-62
2024/02/04 07:37:31;;;;;;;2.90;1.43;;;13.00;58.60;;;;;;5035620;28;20224;-59
2024/02/04 07:39:57;;;;;;;1.37;1.23;;;13.00;58.40;;;;;;5051743;28;20438;-62
2024/02/04 07:42:22;;;;;;;1.00;1.00;;;13.00;58.50;;;;;;5051261;28;20180;-66
2024/02/04 07:44:48;;;;;;;0.60;0.60;;;13.00;58.40;;;;;;5051916;28;20618;-59
2024/02/04 07:47:13;;;;;;;0.90;0.90;;;13.00;58.40;;;;;;5050299;28;20201;-60
2024/02/04 07:49:39;;;;;;;1.50;1.23;;;12.80;58.80;;;;;;5043210;28;20185;-61
2024/02/04 07:52:05;;;;;;;1.70;1.27;;;12.80;58.80;;;;;;5039276;28;20209;-62
2024/02/04 07:54:30;;;;;;;2.30;1.37;;;12.90;59.00;;;;;;5048911;28;20188;-63
2024/02/04 07:56:56;;;;;;;1.40;1.30;;;12.90;58.90;;;;;;5049645;28;20334;-59
2024/02/04 07:59:21;;;;;;;1.30;1.20;;;12.70;59.20;;;;;;5049577;28;20667;-62
2024/02/04 08:01:47;;;;;;;1.20;1.10;;;12.70;59.40;;;;;;5050811;28;20192;-61
2024/02/04 08:04:13;;;;;;;0.83;0.83;;;12.70;59.50;;;;;;5047259;28;20181;-60
2024/02/04 08:06:38;;;;;;;1.20;1.10;;;12.70;59.40;;;;;;5030882;28;20215;-62
2024/02/04 08:09:04;;;;;;;1.03;1.00;;;12.70;59.40;;;;;;5048937;28;20177;-59
2024/02/04 08:11:30;;;;;;;1.30;1.20;;;12.80;59.40;;;;;;5050457;28;20551;-60
2024/02/04 08:13:56;;;;;;;1.27;1.10;;;12.90;59.10;;;;;;5047495;28;20180;-62
2024/02/04 08:16:21;;;;;;;2.60;1.10;;;13.00;59.00;;;;;;5047859;28;20270;-62
2024/02/04 08:18:47;;;;;;;1.03;1.00;;;13.00;58.90;;;;;;5036472;28;20208;-64
2024/02/04 08:21:12;;;;;;;0.80;0.80;;;13.00;58.90;;;;;;5041417;28;20528;-62
2024/02/04 08:23:39;;;;;;;1.20;1.10;;;13.00;58.60;;;;;;5049108;28;20181;-59
2024/02/04 08:26:05;;;;;;;1.00;0.90;;;13.10;58.40;;;;;;5038859;28;20205;-63
2024/02/04 08:28:31;;;;;;;2.60;1.23;;;13.20;58.60;;;;;;5045389;28;20419;-59
2024/02/04 08:30:57;;;;;;;1.17;1.03;;;13.00;58.60;;;;;;5045365;28;20178;-62
2024/02/04 08:33:22;;;;;;;1.47;1.00;;;13.10;58.90;;;;;;5040802;28;20188;-62
2024/02/04 08:35:51;;;;;;;0.87;0.87;;;13.20;58.60;;;;;;5040902;28;20208;-59
2024/02/04 08:38:16;;;;;;;1.33;1.23;;;13.30;58.00;;;;;;5049372;28;20187;-62
2024/02/04 08:40:42;;;;;;;1.20;1.10;;;13.20;58.30;;;;;;5050151;28;20416;-61
2024/02/04 08:43:07;;;;;;;1.20;0.90;;;13.30;58.10;;;;;;5049115;28;20190;-62
2024/02/04 08:45:33;;;;;;;1.70;1.40;;;13.20;58.00;;;;;;5047075;28;20200;-60
2024/02/04 08:47:58;;;;;;;1.10;1.00;;;13.20;58.40;;;;;;5038547;28;20176;-59
2024/02/04 08:50:24;;;;;;;1.30;1.20;;;13.10;58.40;;;;;;5050083;28;20204;-61
2024/02/04 08:52:50;;;;;;;1.53;1.43;;;13.10;58.70;;;;;;5049178;28;20184;-61
2024/02/04 08:55:15;;;;;;;1.33;1.03;;;12.90;58.80;;;;;;5049650;28;20509;-61
2024/02/04 08:57:41;;;;;;;1.23;1.13;;;12.80;59.20;;;;;;5046372;28;20204;-59
2024/02/04 09:00:11;;;;;;;1.20;1.10;;;12.80;58.90;;;;;;5039443;28;20201;-61
2024/02/04 09:02:37;;;;;;;1.30;1.13;;;12.60;59.50;;;;;;5041781;28;20671;-59
2024/02/04 09:05:04;;;;;;;1.37;1.27;;;12.70;59.50;;;;;;5042421;28;20479;-59
2024/02/04 09:07:31;;;;;;;1.53;0.90;;;12.70;59.40;;;;;;5038604;28;20486;-62
2024/02/04 09:09:56;;;;;;;1.10;1.00;;;12.60;59.80;;;;;;5049790;28;20934;-61
2024/02/04 09:12:22;;;;;;;1.07;0.97;;;12.70;60.00;;;;;;5048474;28;20424;-62
2024/02/04 09:14:48;;;;;;;1.00;0.90;;;12.80;59.80;;;;;;5046606;28;20208;-62
2024/02/04 09:17:13;;;;;;;1.70;1.60;;;13.00;59.50;;;;;;5041125;28;20358;-59
2024/02/04 09:19:39;;;;;;;0.90;0.80;;;12.80;59.30;;;;;;5030989;28;20661;-58
2024/02/04 09:22:05;;;;;;;1.63;1.03;;;12.80;59.80;;;;;;5039597;28;20181;-59
2024/02/04 09:24:30;;;;;;;0.77;0.77;;;12.70;60.00;;;;;;5048806;28;20419;-60
2024/02/04 09:26:56;;;;;;;1.00;0.90;;;12.80;60.10;;;;;;5048104;28;20223;-61
2024/02/04 09:29:21;;;;;;;1.93;0.97;;;12.90;59.50;;;;;;5047814;28;20188;-62
2024/02/04 09:31:49;;;;;;;1.30;0.80;;;13.00;59.40;;;;;;5048917;28;20180;-60
2024/02/04 09:34:15;;;;;;;0.77;0.77;;;12.90;59.40;;;;;;5040333;28;20190;-60
2024/02/04 09:36:40;;;;;;;0.97;0.93;;;13.10;59.40;;;;;;5040569;28;20493;-61
2024/02/04 09:39:06;;;;;;;1.80;1.10;;;13.20;59.00;;;;;;5049264;28;20218;-61
2024/02/04 09:41:32;;;;;;;1.17;1.07;;;13.10;59.10;;;;;;5045280;28;20185;-59
2024/02/04 09:43:58;;;;;;;0.83;0.80;;;13.20;59.00;;;;;;5035583;28;20181;-59
2024/02/04 09:46:24;;;;;;;0.80;0.80;;;13.30;58.70;;;;;;5037737;28;20204;-62
2024/02/04 09:48:52;;;;;;;1.07;0.90;;;13.20;58.80;;;;;;5041845;28;20485;-59
2024/02/04 09:51:18;;;;;;;0.80;0.80;;;13.30;58.70;;;;;;5048817;28;20793;-60
2024/02/04 09:53:45;;;;;;;1.07;0.97;;;13.30;58.70;;;;;;5048658;28;20411;-59
2024/02/04 09:56:12;;;;;;;1.27;0.87;;;13.30;58.70;;;;;;5048497;28;20217;-61
2024/02/04 09:58:38;;;;;;;1.00;0.90;;;13.40;58.80;;;;;;5045423;28;20455;-61
2024/02/04 10:01:09;;;;;;;0.80;0.80;;;13.50;58.60;;;;;;5039995;28;20442;-59
2024/02/04 10:03:35;;;;;;;1.03;0.93;;;13.50;58.50;;;;;;5041553;28;20442;-61
2024/02/04 10:06:01;;;;;;;2.20;1.43;;;13.60;58.40;;;;;;5048523;28;20966;-62
2024/02/04 10:08:26;;;;;;;2.80;1.53;;;13.60;58.50;;;;;;5048170;28;20191;-62
2024/02/04 10:10:54;;;;;;;3.43;0.97;;;13.50;58.70;;;;;;5049109;28;20184;-64
2024/02/04 10:13:21;;;;;;;1.00;0.80;;;13.60;58.70;;;;;;5044189;28;20209;-61
2024/02/04 10:15:47;;;;;;;0.80;0.80;;;13.80;58.60;;;;;;5037699;28;21125;-64
2024/02/04 10:18:13;;;;;;;1.27;1.10;;;13.90;58.10;;;;;;5037079;28;20435;-61
2024/02/04 10:20:38;;;;;;;1.33;0.80;;;13.90;58.00;;;;;;5039498;28;20438;-61
2024/02/04 10:23:04;;;;;;;1.20;1.07;;;14.00;58.00;;;;;;5048110;28;20283;-59
2024/02/04 10:25:30;;;;;;;1.00;0.77;;;14.10;57.90;;;;;;5043986;28;20184;-60
2024/02/04 10:27:57;;;;;;;0.87;0.80;;;14.30;58.10;;;;;;5041166;28;20241;-62
2024/02/04 10:30:22;;;;;;;0.77;0.70;;;14.50;57.20;;;;;;5046507;28;20205;-60
2024/02/04 10:32:52;;;;;;;1.30;1.00;;;14.50;57.20;;;;;;5039433;28;20502;-61
2024/02/04 10:35:22;;;;;;;2.40;0.80;;;14.50;57.00;;;;;;5045702;28;20216;-57
2024/02/04 10:37:48;;;;;;;1.70;0.80;;;14.40;57.10;;;;;;5046657;28;20419;-62
2024/02/04 10:40:13;;;;;;;1.30;0.97;;;14.50;57.00;;;;;;5049683;28;20788;-62
2024/02/04 10:42:42;;;;;;;1.13;0.90;;;14.70;56.60;;;;;;5048828;28;20297;-62
2024/02/04 10:45:09;;;;;;;0.93;0.90;;;14.80;56.40;;;;;;5049406;28;20181;-60
2024/02/04 10:47:37;;;;;;;1.77;0.90;;;14.80;56.40;;;;;;5043923;28;21020;-62
2024/02/04 10:50:04;;;;;;;0.73;0.73;;;15.00;56.20;;;;;;5035250;28;20494;-61
2024/02/04 10:52:39;;;;;;;1.20;1.10;;;15.00;56.10;;;;;;5050214;28;20431;-60
2024/02/04 10:55:09;;;;;;;1.30;1.20;;;15.10;56.10;;;;;;5042112;28;20553;-62
2024/02/04 10:57:35;;;;;;;2.10;1.30;;;15.00;55.90;;;;;;5043502;28;20448;-63
2024/02/04 11:00:08;;;;;;;1.23;1.13;;;14.90;55.80;;;;;;5051777;28;20483;-62
2024/02/04 11:02:36;;;;;;;1.80;1.50;;;14.80;56.10;;;;;;5040672;28;20460;-62
2024/02/04 11:05:03;;;;;;;1.17;1.07;;;14.80;56.10;;;;;;5046828;28;20930;-61
2024/02/04 11:07:32;;;;;;;1.70;1.60;;;14.80;56.10;;;;;;5051504;28;20466;-62
2024/02/04 11:09:58;;;;;;;2.23;1.60;;;14.90;56.20;;;;;;5052997;28;20809;-60
2024/02/04 11:12:25;;;;;;;1.20;1.10;;;15.00;55.90;;;;;;5052534;28;20427;-63
2024/02/04 11:14:54;;;;;;;1.00;1.00;;;15.00;56.00;;;;;;5049591;28;20458;-63
2024/02/04 11:17:39;;;;;;;1.57;0.93;;;15.00;56.20;;;;;;5039867;28;20459;-63
2024/02/04 11:20:21;;;;;;;0.93;0.90;;;15.20;55.60;;;;;;5036632;28;20416;-62
2024/02/04 11:23:29;;;;;;;0.83;0.83;;;15.40;55.30;;;;;;5048956;28;20427;-63
2024/02/04 11:25:57;;;;;;;0.77;0.77;;;15.20;55.20;;;;;;5048177;28;20451;-63
2024/02/04 11:28:25;;;;;;;0.87;0.87;;;15.10;56.40;;;;;;5051859;28;20966;-63
2024/02/04 11:30:51;;;;;;;0.80;0.70;;;15.30;56.70;;;;;;5047900;28;20926;-63
2024/02/04 11:33:22;;;;;;;1.07;0.60;;;15.50;56.70;;;;;;5050037;28;21156;-63
2024/02/04 11:36:04;;;;;;;0.80;0.60;;;15.40;56.50;;;;;;5041787;28;21012;-62
2024/02/04 11:38:36;;;;;;;0.80;0.63;;;15.20;56.60;;;;;;5052593;28;20514;-62
2024/02/04 11:41:05;;;;;;;0.60;0.60;;;14.90;57.80;;;;;;5051081;28;20946;-63
2024/02/04 11:43:36;;;;;;;0.77;0.50;;;14.80;57.20;;;;;;5052291;28;20431;-62
2024/02/04 11:46:05;;;;;;;1.50;0.60;;;14.60;57.30;;;;;;5038683;28;20519;-61
2024/02/04 11:48:33;;;;;;;0.70;0.60;;;14.80;57.80;;;;;;5042103;28;20439;-61
2024/02/04 11:51:00;;;;;;;0.70;0.63;;;14.90;57.70;;;;;;5039324;28;20762;-61
2024/02/04 11:53:29;;;;;;;0.67;0.67;;;15.10;57.50;;;;;;5044679;28;20411;-59
2024/02/04 11:55:55;;;;;;;0.50;0.50;;;14.90;57.20;;;;;;5046780;28;20514;-61
2024/02/04 11:58:22;;;;;;;0.63;0.50;;;14.80;57.50;;;;;;5044247;28;20989;-63
2024/02/04 12:00:49;;;;;;;0.60;0.60;;;14.40;57.70;;;;;;5043041;28;20427;-63
2024/02/04 12:03:14;;;;;;;0.60;0.50;;;14.30;58.00;;;;;;5037458;28;20462;-61
2024/02/04 12:05:41;;;;;;;0.97;0.70;;;14.50;58.70;;;;;;5041541;28;22234;-60
2024/02/04 12:08:08;;;;;;;0.80;0.70;;;14.60;58.30;;;;;;5042960;28;20212;-62
2024/02/04 12:10:36;;;;;;;0.80;0.70;;;14.80;58.20;;;;;;5035728;28;20435;-61
2024/02/04 12:13:06;;;;;;;0.73;0.70;;;14.90;57.70;;;;;;5037101;28;20975;-62
2024/02/04 12:15:34;;;;;;;0.50;0.50;;;15.20;57.30;;;;;;5045191;28;20533;-63
2024/02/04 12:18:09;;;;;;;0.60;0.60;;;15.20;57.20;;;;;;5037967;28;20517;-62
2024/02/04 12:20:36;;;;;;;0.70;0.70;;;15.40;56.80;;;;;;5039001;28;20978;-63
2024/02/04 12:23:05;;;;;;;0.90;0.67;;;15.30;56.80;;;;;;5038848;28;21498;-63
2024/02/04 12:25:32;;;;;;;0.70;0.70;;;15.60;56.80;;;;;;5035360;28;20443;-63
2024/02/04 12:28:02;;;;;;;0.60;0.60;;;15.60;56.30;;;;;;5040434;28;20506;-62
2024/02/04 12:30:29;;;;;;;0.60;0.60;;;15.90;56.40;;;;;;5050190;28;20514;-62
2024/02/04 12:33:03;;;;;;;0.60;0.60;;;15.90;56.10;;;;;;5036400;28;20463;-62
2024/02/04 12:35:29;;;;;;;0.60;0.60;;;16.10;55.80;;;;;;5041320;28;20536;-62
2024/02/04 12:37:57;;;;;;;0.53;0.53;;;16.00;55.70;;;;;;5037325;28;20440;-63
2024/02/04 12:40:30;;;;;;;0.70;0.60;;;15.80;56.20;;;;;;5039610;28;20602;-64
2024/02/04 12:43:04;;;;;;;0.50;0.50;;;15.90;56.10;;;;;;5040845;28;20439;-62
2024/02/04 12:45:30;;;;;;;0.70;0.70;;;15.90;55.70;;;;;;5034712;28;20526;-62